createdAt,value
2022-11-26T00:01:29.393Z,95.83
2022-11-26T00:03:57.742Z,95.54
2022-11-26T00:06:27.741Z,97.16
2022-11-26T00:08:55.111Z,97.04
2022-11-26T00:11:22.193Z,97.44
2022-11-26T00:13:49.651Z,96.39
2022-11-26T00:16:17.010Z,97.40
2022-11-26T00:18:44.571Z,97.21
2022-11-26T00:21:29.826Z,97.10
2022-11-26T00:23:56.981Z,97.79
2022-11-26T00:26:25.876Z,99.43
2022-11-26T00:28:56.464Z,100.00
2022-11-26T00:31:24.758Z,98.46
2022-11-26T00:33:52.243Z,98.67
2022-11-26T00:36:33.310Z,99.02
2022-11-26T00:39:12.208Z,98.85
2022-11-26T00:41:40.035Z,97.30
2022-11-26T00:44:17.541Z,97.14
2022-11-26T00:46:47.510Z,98.74
2022-11-26T00:49:15.717Z,97.87
2022-11-26T00:51:43.976Z,99.54
2022-11-26T00:54:14.681Z,100.00
2022-11-26T00:56:44.829Z,100.00
2022-11-26T00:59:14.987Z,100.00
2022-11-26T01:01:42.545Z,100.00
2022-11-26T01:04:09.713Z,99.88
2022-11-26T01:06:40.063Z,100.00
2022-11-26T01:09:13.802Z,100.00
2022-11-26T01:11:40.962Z,98.49
2022-11-26T01:14:15.733Z,98.46
2022-11-26T01:16:44.964Z,100.00
2022-11-26T01:19:14.849Z,100.00
2022-11-26T01:21:42.346Z,100.00
2022-11-26T01:24:09.628Z,99.94
2022-11-26T01:26:42.263Z,100.00
2022-11-26T01:29:19.632Z,100.00
2022-11-26T01:31:46.977Z,100.00
2022-11-26T01:34:14.252Z,100.00
2022-11-26T01:36:42.455Z,100.00
2022-11-26T01:39:21.789Z,98.49
2022-11-26T01:42:02.892Z,99.25
2022-11-26T01:44:32.617Z,98.77
2022-11-26T01:47:00.855Z,99.55
2022-11-26T01:49:35.023Z,98.87
2022-11-26T01:52:18.071Z,97.76
2022-11-26T01:54:46.092Z,96.81
2022-11-26T01:57:28.473Z,97.22
2022-11-26T02:00:00.598Z,97.59
2022-11-26T02:02:30.215Z,97.97
2022-11-26T02:05:06.060Z,97.98
2022-11-26T02:07:33.273Z,97.53
2022-11-26T02:10:01.078Z,97.99
2022-11-26T02:12:28.836Z,97.52
2022-11-26T02:14:56.176Z,96.82
2022-11-26T02:17:39.635Z,96.83
2022-11-26T02:20:39.360Z,96.39
2022-11-26T02:23:29.063Z,96.09
2022-11-26T02:26:20.829Z,96.40
2022-11-26T02:29:08.806Z,95.46
2022-11-26T02:32:04.210Z,94.99
2022-11-26T02:34:44.922Z,95.39
2022-11-26T02:37:30.451Z,94.00
2022-11-26T02:39:58.548Z,93.67
2022-11-26T02:42:27.567Z,96.05
2022-11-26T02:44:58.404Z,98.33
2022-11-26T02:47:28.010Z,98.73
2022-11-26T02:49:57.672Z,98.80
2022-11-26T02:52:26.289Z,99.38
2022-11-26T02:54:55.625Z,98.78
2022-11-26T02:57:26.644Z,98.46
2022-11-26T02:59:54.160Z,98.60
2022-11-26T03:02:32.750Z,97.89
2022-11-26T03:05:02.488Z,97.93
2022-11-26T03:07:31.494Z,97.66
2022-11-26T03:10:00.988Z,96.90
2022-11-26T03:12:29.092Z,96.24
2022-11-26T03:14:56.614Z,95.84
2022-11-26T03:17:23.663Z,96.50
2022-11-26T03:19:50.985Z,96.22
2022-11-26T03:22:18.598Z,96.58
2022-11-26T03:24:45.828Z,95.58
2022-11-26T03:27:12.843Z,96.35
2022-11-26T03:29:39.959Z,95.95
2022-11-26T03:32:07.579Z,95.63
2022-11-26T03:34:34.765Z,96.16
2022-11-26T03:37:01.870Z,95.81
2022-11-26T03:39:28.988Z,95.43
2022-11-26T03:41:56.215Z,95.23
2022-11-26T03:44:23.473Z,95.65
2022-11-26T03:46:50.505Z,94.75
2022-11-26T03:49:17.995Z,94.78
2022-11-26T03:51:45.023Z,94.89
2022-11-26T03:54:12.462Z,95.36
2022-11-26T03:56:39.554Z,94.53
2022-11-26T03:59:07.085Z,95.10
2022-11-26T04:01:34.430Z,95.70
2022-11-26T04:04:01.627Z,96.13
2022-11-26T04:06:28.841Z,95.86
2022-11-26T04:08:55.965Z,95.66
2022-11-26T04:11:23.277Z,95.67
2022-11-26T04:13:50.291Z,95.57
2022-11-26T04:16:17.456Z,95.50
2022-11-26T04:18:44.760Z,95.74
2022-11-26T04:21:12.217Z,95.78
2022-11-26T04:23:39.634Z,94.96
2022-11-26T04:26:06.932Z,94.27
2022-11-26T04:28:34.227Z,94.54
2022-11-26T04:31:01.582Z,95.38
2022-11-26T04:33:28.657Z,95.95
2022-11-26T04:35:56.279Z,96.12
2022-11-26T04:38:25.981Z,95.11
2022-11-26T04:40:53.453Z,96.18
2022-11-26T04:43:21.282Z,96.98
2022-11-26T04:45:51.329Z,95.55
2022-11-26T04:48:18.878Z,97.20
2022-11-26T04:50:46.463Z,97.26
2022-11-26T04:53:13.910Z,98.00
2022-11-26T04:55:41.061Z,96.46
2022-11-26T04:58:09.542Z,96.98
2022-11-26T05:00:36.608Z,97.00
2022-11-26T05:03:03.709Z,96.78
2022-11-26T05:05:31.139Z,96.85
2022-11-26T05:07:58.349Z,96.58
2022-11-26T05:10:25.507Z,96.25
2022-11-26T05:12:52.581Z,95.65
2022-11-26T05:15:19.686Z,95.14
2022-11-26T05:17:46.952Z,95.38
2022-11-26T05:20:15.284Z,94.73
2022-11-26T05:22:43.308Z,96.52
2022-11-26T05:25:10.767Z,95.81
2022-11-26T05:27:38.065Z,96.36
2022-11-26T05:30:06.170Z,96.88
2022-11-26T05:32:33.229Z,96.11
2022-11-26T05:35:00.580Z,94.41
2022-11-26T05:37:28.017Z,94.74
2022-11-26T05:39:55.186Z,96.66
2022-11-26T05:42:22.624Z,97.55
2022-11-26T05:44:49.712Z,97.43
2022-11-26T05:47:17.088Z,96.92
2022-11-26T05:49:44.750Z,96.72
2022-11-26T05:52:11.898Z,96.68
2022-11-26T05:54:39.468Z,96.11
2022-11-26T05:57:06.993Z,96.28
2022-11-26T05:59:34.351Z,96.61
2022-11-26T06:02:01.422Z,95.73
2022-11-26T06:04:29.458Z,96.26
2022-11-26T06:06:56.366Z,96.28
2022-11-26T06:09:23.468Z,96.56
2022-11-26T06:11:51.003Z,96.14
2022-11-26T06:14:18.650Z,95.34
2022-11-26T06:16:45.794Z,96.01
2022-11-26T06:19:13.378Z,96.21
2022-11-26T06:21:40.610Z,95.83
2022-11-26T06:24:16.168Z,96.28
2022-11-26T06:26:43.269Z,95.48
2022-11-26T06:29:10.689Z,96.37
2022-11-26T06:31:37.959Z,96.22
2022-11-26T06:34:05.281Z,96.12
2022-11-26T06:36:32.364Z,96.42
2022-11-26T06:38:59.446Z,96.20
2022-11-26T06:41:27.545Z,95.53
2022-11-26T06:43:54.832Z,95.47
2022-11-26T06:46:22.103Z,96.64
2022-11-26T06:48:49.248Z,96.53
2022-11-26T06:51:17.370Z,96.43
2022-11-26T06:53:44.526Z,96.88
2022-11-26T06:56:18.380Z,97.03
2022-11-26T06:58:47.162Z,97.64
2022-11-26T07:01:20.177Z,98.77
2022-11-26T07:03:48.042Z,98.89
2022-11-26T07:06:21.325Z,99.49
2022-11-26T07:08:49.112Z,99.33
2022-11-26T07:11:17.099Z,99.86
2022-11-26T07:13:44.292Z,99.99
2022-11-26T07:16:12.178Z,99.71
2022-11-26T07:18:39.586Z,100.00
2022-11-26T07:21:09.497Z,100.00
2022-11-26T07:23:36.724Z,100.00
2022-11-26T07:26:05.560Z,100.00
2022-11-26T07:28:37.537Z,100.00
2022-11-26T07:31:10.401Z,100.00
2022-11-26T07:33:41.982Z,100.00
2022-11-26T07:36:15.319Z,99.87
2022-11-26T07:38:42.661Z,98.57
2022-11-26T07:41:13.043Z,99.22
2022-11-26T07:43:41.699Z,97.66
2022-11-26T07:46:12.779Z,96.52
2022-11-26T07:48:40.580Z,95.97
2022-11-26T07:51:15.834Z,93.91
2022-11-26T07:53:43.053Z,92.98
2022-11-26T07:56:10.256Z,92.11
2022-11-26T07:58:37.494Z,90.28
2022-11-26T08:01:09.548Z,92.10
2022-11-26T08:03:41.356Z,91.75
2022-11-26T08:06:10.647Z,89.13
2022-11-26T08:08:38.243Z,85.26
2022-11-26T08:11:12.596Z,83.80
2022-11-26T08:13:39.720Z,83.06
2022-11-26T08:16:06.958Z,82.65
2022-11-26T08:18:34.158Z,81.80
2022-11-26T08:21:01.585Z,82.09
2022-11-26T08:23:30.735Z,82.08
2022-11-26T08:26:22.681Z,80.27
2022-11-26T08:28:53.586Z,77.70
2022-11-26T08:31:25.111Z,76.62
2022-11-26T08:33:52.338Z,76.71
2022-11-26T08:36:19.526Z,76.85
2022-11-26T08:38:46.479Z,74.11
2022-11-26T08:41:14.347Z,74.14
2022-11-26T08:44:06.284Z,75.08
2022-11-26T08:46:32.581Z,75.30
2022-11-26T08:48:59.981Z,73.83
2022-11-26T08:51:27.417Z,71.81
2022-11-26T08:53:54.422Z,71.32
2022-11-26T08:56:21.834Z,71.71
2022-11-26T08:58:49.323Z,70.86
2022-11-26T09:01:19.580Z,68.73
2022-11-26T09:03:51.639Z,68.70
2022-11-26T09:06:20.673Z,67.36
2022-11-26T09:09:06.574Z,66.35
2022-11-26T09:11:36.563Z,66.14
2022-11-26T09:14:04.719Z,66.62
2022-11-26T09:16:32.289Z,66.28
2022-11-26T09:19:04.291Z,65.42
2022-11-26T09:21:31.636Z,63.89
2022-11-26T09:23:58.745Z,63.87
2022-11-26T09:26:29.017Z,63.69
2022-11-26T09:28:56.280Z,62.78
2022-11-26T09:31:24.583Z,62.19
2022-11-26T09:33:55.639Z,63.36
2022-11-26T09:36:22.881Z,62.64
2022-11-26T09:38:53.462Z,61.41
2022-11-26T09:41:39.238Z,61.79
2022-11-26T09:44:39.998Z,60.68
2022-11-26T09:47:22.815Z,61.43
2022-11-26T09:49:59.828Z,61.40
2022-11-26T09:52:31.230Z,61.55
2022-11-26T09:55:08.809Z,60.52
2022-11-26T09:57:41.135Z,61.38
2022-11-26T10:00:23.681Z,60.91
2022-11-26T10:02:57.970Z,59.88
2022-11-26T10:05:46.367Z,58.70
2022-11-26T10:08:40.938Z,59.24
2022-11-26T10:11:20.127Z,58.11
2022-11-26T10:13:53.374Z,57.51
2022-11-26T10:16:49.582Z,56.92
2022-11-26T10:19:35.640Z,56.42
2022-11-26T10:22:12.453Z,56.17
2022-11-26T10:24:42.550Z,56.01
2022-11-26T10:27:20.958Z,55.73
2022-11-26T10:30:09.752Z,56.09
2022-11-26T10:32:43.108Z,54.69
2022-11-26T10:35:16.741Z,55.15
2022-11-26T10:37:44.271Z,54.39
2022-11-26T10:40:28.087Z,54.05
2022-11-26T10:43:08.708Z,54.04
2022-11-26T10:45:50.814Z,52.86
2022-11-26T10:48:23.049Z,53.01
2022-11-26T10:51:16.776Z,53.02
2022-11-26T10:53:58.162Z,53.50
2022-11-26T10:56:44.071Z,51.65
2022-11-26T10:59:31.252Z,52.10
2022-11-26T11:02:04.393Z,52.41
2022-11-26T11:04:35.715Z,52.26
2022-11-26T11:07:06.146Z,50.04
2022-11-26T11:09:38.399Z,50.40
2022-11-26T11:12:11.638Z,50.43
2022-11-26T11:14:43.172Z,50.35
2022-11-26T11:17:37.346Z,50.57
2022-11-26T11:20:17.205Z,53.45
2022-11-26T11:22:46.271Z,52.57
2022-11-26T11:25:26.004Z,52.40
2022-11-26T11:27:55.477Z,51.88
2022-11-26T11:30:27.881Z,50.66
2022-11-26T11:33:18.185Z,50.53
2022-11-26T11:35:45.508Z,51.15
2022-11-26T11:38:24.752Z,51.73
2022-11-26T11:40:52.185Z,51.42
2022-11-26T11:43:23.442Z,51.21
2022-11-26T11:46:44.421Z,51.44
2022-11-26T11:49:24.804Z,51.42
2022-11-26T11:52:17.077Z,53.10
2022-11-26T11:54:50.587Z,51.90
2022-11-26T11:57:35.367Z,51.62
2022-11-26T12:00:16.544Z,52.56
2022-11-26T12:03:17.548Z,52.01
2022-11-26T12:06:06.325Z,50.66
2022-11-26T12:09:11.542Z,49.66
2022-11-26T12:11:55.748Z,50.43
2022-11-26T12:14:22.648Z,51.18
2022-11-26T12:16:55.053Z,51.52
2022-11-26T12:19:48.198Z,51.92
2022-11-26T12:22:25.596Z,51.90
2022-11-26T12:25:26.380Z,52.90
2022-11-26T12:28:06.013Z,51.43
2022-11-26T12:30:55.916Z,51.10
2022-11-26T12:33:43.877Z,49.80
2022-11-26T12:36:40.310Z,50.18
2022-11-26T12:39:53.912Z,51.01
2022-11-26T12:42:49.060Z,50.83
2022-11-26T12:45:33.444Z,50.13
2022-11-26T12:48:28.922Z,50.27
2022-11-26T12:51:12.887Z,49.98
2022-11-26T12:54:15.034Z,50.26
2022-11-26T12:56:48.306Z,50.61
2022-11-26T12:59:34.625Z,50.67
2022-11-26T13:02:15.818Z,51.48
2022-11-26T13:04:43.060Z,52.59
2022-11-26T13:07:28.236Z,51.59
2022-11-26T13:10:04.573Z,51.83
2022-11-26T13:12:50.259Z,52.18
2022-11-26T13:15:20.626Z,52.63
2022-11-26T13:17:51.502Z,52.64
2022-11-26T13:20:37.311Z,54.00
2022-11-26T13:23:39.362Z,52.84
2022-11-26T13:26:28.192Z,53.66
2022-11-26T13:29:22.630Z,54.05
2022-11-26T13:32:12.680Z,53.22
2022-11-26T13:35:09.871Z,53.72
2022-11-26T13:38:04.023Z,53.73
2022-11-26T13:40:58.407Z,54.09
2022-11-26T13:43:55.025Z,56.43
2022-11-26T13:46:40.945Z,57.58
2022-11-26T13:49:11.935Z,58.77
2022-11-26T13:51:56.608Z,59.12
2022-11-26T13:55:03.310Z,59.31
2022-11-26T13:57:44.470Z,60.41
2022-11-26T14:03:43.982Z,60.78
2022-11-26T14:06:41.878Z,61.20
2022-11-26T14:10:01.645Z,61.81
2022-11-26T14:13:03.000Z,60.77
2022-11-26T14:15:42.853Z,61.58
2022-11-26T14:18:17.783Z,62.03
2022-11-26T14:21:07.465Z,62.00
2022-11-26T14:23:55.307Z,62.58
2022-11-26T14:26:37.848Z,62.86
2022-11-26T14:29:07.681Z,63.18
2022-11-26T14:31:38.269Z,63.95
2022-11-26T14:34:18.482Z,63.92
2022-11-26T14:37:00.617Z,65.07
2022-11-26T14:39:29.315Z,64.91
2022-11-26T14:42:05.713Z,65.60
2022-11-26T14:44:34.191Z,67.51
2022-11-26T14:47:10.102Z,67.48
2022-11-26T14:49:48.355Z,67.93
2022-11-26T14:52:37.450Z,68.67
2022-11-26T14:55:13.323Z,68.59
2022-11-26T14:58:04.895Z,70.26
2022-11-26T15:00:38.254Z,70.74
2022-11-26T15:03:26.676Z,71.79
2022-11-26T15:05:54.088Z,72.45
2022-11-26T15:08:25.963Z,73.11
2022-11-26T15:11:02.040Z,72.91
2022-11-26T15:13:37.550Z,73.87
2022-11-26T15:16:24.924Z,74.58
2022-11-26T15:18:54.839Z,74.87
2022-11-26T15:21:45.617Z,75.67
2022-11-26T15:25:12.134Z,75.74
2022-11-26T15:27:30.112Z,77.90
2022-11-26T15:29:59.847Z,76.74
2022-11-26T15:32:35.716Z,78.33
2022-11-26T15:35:04.262Z,78.18
2022-11-26T15:37:52.503Z,79.11
2022-11-26T15:40:55.657Z,79.40
2022-11-26T15:43:39.537Z,81.04
2022-11-26T15:46:31.477Z,80.33
2022-11-26T15:49:09.471Z,81.95
2022-11-26T15:52:04.062Z,82.45
2022-11-26T15:55:12.362Z,82.50
2022-11-26T15:57:42.655Z,83.57
2022-11-26T16:00:52.639Z,84.47
2022-11-26T16:07:57.750Z,83.53
2022-11-26T16:18:06.187Z,85.22
2022-11-26T16:27:32.939Z,85.98
2022-11-26T16:37:12.700Z,87.31
2022-11-26T16:39:41.052Z,86.63
2022-11-26T16:42:50.182Z,86.61
2022-11-26T16:46:04.515Z,87.61
2022-11-26T16:49:26.790Z,87.40
2022-11-26T16:52:05.696Z,88.44
2022-11-26T16:55:03.546Z,88.97
2022-11-26T16:58:14.032Z,88.55
2022-11-26T17:01:00.293Z,89.36
2022-11-26T17:03:39.009Z,89.04
2022-11-26T17:06:36.537Z,89.69
2022-11-26T17:09:17.436Z,89.07
2022-11-26T17:11:56.151Z,89.07
2022-11-26T17:14:23.893Z,89.84
2022-11-26T17:16:53.608Z,89.69
2022-11-26T17:19:21.025Z,88.71
2022-11-26T17:21:48.523Z,89.13
2022-11-26T17:24:19.071Z,90.13
2022-11-26T17:26:50.523Z,88.96
2022-11-26T17:29:20.838Z,89.03
2022-11-26T17:31:50.270Z,89.47
2022-11-26T17:34:20.414Z,90.20
2022-11-26T17:36:55.991Z,89.89
2022-11-26T17:39:32.897Z,89.54
2022-11-26T17:42:00.615Z,89.74
2022-11-26T17:44:28.448Z,89.78
2022-11-26T17:47:16.249Z,90.21
2022-11-26T17:49:45.825Z,89.85
2022-11-26T17:52:20.300Z,89.68
2022-11-26T17:54:51.270Z,90.40
2022-11-26T18:00:02.740Z,90.21
2022-11-26T18:02:32.996Z,90.60
2022-11-26T18:05:00.573Z,90.79
2022-11-26T18:07:33.680Z,90.61
2022-11-26T18:10:00.850Z,90.71
2022-11-26T18:12:31.853Z,89.93
2022-11-26T18:15:03.601Z,90.69
2022-11-26T18:17:31.350Z,89.72
2022-11-26T18:20:08.464Z,90.40
2022-11-26T18:22:35.920Z,89.99
2022-11-26T18:25:03.328Z,89.93
2022-11-26T18:27:33.459Z,89.98
2022-11-26T18:30:04.579Z,90.50
2022-11-26T18:32:33.569Z,90.38
2022-11-26T18:35:04.637Z,90.31
2022-11-26T18:37:32.188Z,90.39
2022-11-26T18:39:59.870Z,90.77
2022-11-26T18:42:37.075Z,90.79
2022-11-26T18:45:08.464Z,91.15
2022-11-26T18:47:35.991Z,91.18
2022-11-26T18:50:07.623Z,91.02
2022-11-26T18:52:35.057Z,91.24
2022-11-26T18:55:08.449Z,90.42
2022-11-26T18:57:38.899Z,90.25
2022-11-26T19:00:07.533Z,90.10
2022-11-26T19:02:36.650Z,90.06
2022-11-26T19:05:08.932Z,90.81
2022-11-26T19:07:40.674Z,90.75
2022-11-26T19:10:14.086Z,91.14
2022-11-26T19:12:41.464Z,90.59
2022-11-26T19:15:08.869Z,90.41
2022-11-26T19:17:36.263Z,89.98
2022-11-26T19:20:03.798Z,90.71
2022-11-26T19:22:31.177Z,90.15
2022-11-26T19:24:58.644Z,91.76
2022-11-26T19:27:29.289Z,91.25
2022-11-26T19:29:56.719Z,91.43
2022-11-26T19:32:24.570Z,91.46
2022-11-26T19:34:52.209Z,91.81
2022-11-26T19:37:19.608Z,91.35
2022-11-26T19:39:46.790Z,91.00
2022-11-26T19:42:17.046Z,91.13
2022-11-26T19:44:44.662Z,90.65
2022-11-26T19:47:12.028Z,91.03
2022-11-26T19:49:39.666Z,90.85
2022-11-26T19:52:34.204Z,90.51
2022-11-26T19:55:04.940Z,90.93
2022-11-26T19:57:33.525Z,91.01
2022-11-26T20:00:10.491Z,91.07
2022-11-26T20:06:41.018Z,91.54
2022-11-26T20:09:21.830Z,91.32
2022-11-26T20:11:52.847Z,91.50
2022-11-26T20:14:24.701Z,91.42
2022-11-26T20:16:57.633Z,91.35
2022-11-26T20:19:29.685Z,91.24
2022-11-26T20:22:27.835Z,92.00
2022-11-26T20:25:15.507Z,91.83
2022-11-26T20:27:48.804Z,91.50
2022-11-26T20:33:39.733Z,90.53
2022-11-26T20:36:14.974Z,91.42
2022-11-26T20:38:45.980Z,91.49
2022-11-26T20:41:26.491Z,91.61
2022-11-26T20:44:10.975Z,91.94
2022-11-26T20:47:15.644Z,92.21
2022-11-26T20:52:35.706Z,92.11
2022-11-26T20:55:26.995Z,91.87
2022-11-26T21:02:02.086Z,91.59
2022-11-26T21:04:42.853Z,91.85
2022-11-26T21:08:12.333Z,91.69
2022-11-26T21:10:53.359Z,91.10
2022-11-26T21:14:14.824Z,91.36
2022-11-26T21:20:49.776Z,91.88
2022-11-26T21:23:59.562Z,92.32
2022-11-26T21:26:53.706Z,92.64
2022-11-26T21:33:09.193Z,92.96
2022-11-26T21:49:54.536Z,92.08
2022-11-26T21:52:44.643Z,92.02
2022-11-26T21:55:16.086Z,91.67
2022-11-26T21:57:55.895Z,92.14
2022-11-26T22:00:48.138Z,91.64
2022-11-26T22:03:26.566Z,91.82
2022-11-26T22:06:23.704Z,92.28
2022-11-26T22:09:04.824Z,92.14
2022-11-26T22:12:03.900Z,92.40
2022-11-26T22:14:44.189Z,92.44
2022-11-26T22:17:15.372Z,92.27
2022-11-26T22:19:51.234Z,92.39
2022-11-26T22:22:22.838Z,92.64
2022-11-26T22:25:11.968Z,91.71
2022-11-26T22:27:43.338Z,91.63
2022-11-26T22:30:13.916Z,91.49
2022-11-26T22:32:41.958Z,91.94
2022-11-26T22:35:12.620Z,91.72
2022-11-26T22:37:45.872Z,92.05
2022-11-26T22:40:29.849Z,91.77
2022-11-26T22:43:07.223Z,92.15
2022-11-26T22:45:41.456Z,91.46
2022-11-26T22:48:11.585Z,91.24
2022-11-26T22:50:50.898Z,91.49
2022-11-26T22:53:18.937Z,91.57
2022-11-26T22:56:01.296Z,91.60
2022-11-26T22:58:36.832Z,91.69
2022-11-26T23:01:09.590Z,91.79
2022-11-26T23:03:40.869Z,91.86
2022-11-26T23:06:22.477Z,91.72
2022-11-26T23:08:50.823Z,91.50
2022-11-26T23:11:22.027Z,91.48
2022-11-26T23:13:50.668Z,91.10
2022-11-26T23:16:20.323Z,91.08
2022-11-26T23:18:48.815Z,91.02
2022-11-26T23:21:25.996Z,90.49
2022-11-26T23:23:58.941Z,90.93
2022-11-26T23:26:41.251Z,90.85
2022-11-26T23:29:13.123Z,90.84
2022-11-26T23:31:51.110Z,91.29
2022-11-26T23:34:20.094Z,90.45
2022-11-26T23:37:08.772Z,91.27
2022-11-26T23:39:36.125Z,91.58
2022-11-26T23:42:03.412Z,91.62
2022-11-26T23:44:32.668Z,92.04
2022-11-26T23:47:03.238Z,91.79
2022-11-26T23:49:43.906Z,92.21
2022-11-26T23:52:19.954Z,92.22
2022-11-26T23:54:47.747Z,91.96
2022-11-26T23:57:15.665Z,91.55
2022-11-26T23:59:43.101Z,91.72
